sensor_id;sensor_type;location;lat;lon;timestamp;pressure;altitude;pressure_sealevel;temperature;humidity
21594;BME280;10959;51.328;7.322;2022-12-10T00:01:56;97875.94;;;2.67;79.31
21594;BME280;10959;51.328;7.322;2022-12-10T00:04:22;97873.06;;;2.73;79.17
21594;BME280;10959;51.328;7.322;2022-12-10T00:06:49;97874.91;;;2.71;79.04
21594;BME280;10959;51.328;7.322;2022-12-10T00:09:16;97869.47;;;2.74;79.22
21594;BME280;10959;51.328;7.322;2022-12-10T00:11:43;97876.66;;;2.72;79.23
21594;BME280;10959;51.328;7.322;2022-12-10T00:14:11;97879.25;;;2.73;78.97
21594;BME280;10959;51.328;7.322;2022-12-10T00:16:40;97880.00;;;2.77;78.62
21594;BME280;10959;51.328;7.322;2022-12-10T00:19:06;97867.66;;;2.76;78.99
21594;BME280;10959;51.328;7.322;2022-12-10T00:21:34;97871.22;;;2.75;78.69
21594;BME280;10959;51.328;7.322;2022-12-10T00:24:03;97864.13;;;2.75;78.62
21594;BME280;10959;51.328;7.322;2022-12-10T00:26:32;97868.56;;;2.75;78.70
21594;BME280;10959;51.328;7.322;2022-12-10T00:29:00;97868.63;;;2.73;78.43
21594;BME280;10959;51.328;7.322;2022-12-10T00:31:29;97866.81;;;2.74;78.60
21594;BME280;10959;51.328;7.322;2022-12-10T00:33:58;97871.34;;;2.72;78.45
21594;BME280;10959;51.328;7.322;2022-12-10T00:36:27;97872.97;;;2.76;78.36
21594;BME280;10959;51.328;7.322;2022-12-10T00:38:54;97869.47;;;2.74;78.17
21594;BME280;10959;51.328;7.322;2022-12-10T00:41:21;97872.97;;;2.76;78.22
21594;BME280;10959;51.328;7.322;2022-12-10T00:43:48;97870.41;;;2.73;78.23
21594;BME280;10959;51.328;7.322;2022-12-10T00:46:15;97873.94;;;2.73;77.96
21594;BME280;10959;51.328;7.322;2022-12-10T00:48:43;97873.16;;;2.70;77.98
21594;BME280;10959;51.328;7.322;2022-12-10T00:51:13;97860.88;;;2.66;77.85
21594;BME280;10959;51.328;7.322;2022-12-10T00:53:41;97861.66;;;2.69;77.86
21594;BME280;10959;51.328;7.322;2022-12-10T00:56:09;97862.75;;;2.64;78.34
21594;BME280;10959;51.328;7.322;2022-12-10T00:58:37;97862.63;;;2.67;77.90
21594;BME280;10959;51.328;7.322;2022-12-10T01:01:09;97869.97;;;2.58;77.83
21594;BME280;10959;51.328;7.322;2022-12-10T01:03:37;97875.97;;;2.65;78.22
21594;BME280;10959;51.328;7.322;2022-12-10T01:06:08;97875.31;;;2.58;77.99
21594;BME280;10959;51.328;7.322;2022-12-10T01:08:37;97875.00;;;2.68;77.91
21594;BME280;10959;51.328;7.322;2022-12-10T01:11:04;97870.81;;;2.61;77.70
21594;BME280;10959;51.328;7.322;2022-12-10T01:13:30;97869.97;;;2.58;77.78
21594;BME280;10959;51.328;7.322;2022-12-10T01:16:00;97875.41;;;2.55;77.97
21594;BME280;10959;51.328;7.322;2022-12-10T01:18:26;97877.03;;;2.59;77.92
21594;BME280;10959;51.328;7.322;2022-12-10T01:20:52;97888.59;;;2.58;78.16
21594;BME280;10959;51.328;7.322;2022-12-10T01:23:19;97880.53;;;2.62;78.13
21594;BME280;10959;51.328;7.322;2022-12-10T01:25:47;97879.59;;;2.63;78.21
21594;BME280;10959;51.328;7.322;2022-12-10T01:28:14;97884.91;;;2.63;78.04
21594;BME280;10959;51.328;7.322;2022-12-10T01:30:40;97887.88;;;2.53;77.72
21594;BME280;10959;51.328;7.322;2022-12-10T01:33:06;97900.53;;;2.45;77.66
21594;BME280;10959;51.328;7.322;2022-12-10T01:35:36;97900.63;;;2.42;78.05
21594;BME280;10959;51.328;7.322;2022-12-10T01:38:02;97895.22;;;2.45;78.01
21594;BME280;10959;51.328;7.322;2022-12-10T01:40:28;97902.19;;;2.49;77.86
21594;BME280;10959;51.328;7.322;2022-12-10T01:42:57;97903.94;;;2.50;77.82
21594;BME280;10959;51.328;7.322;2022-12-10T01:45:23;97907.59;;;2.46;77.94
21594;BME280;10959;51.328;7.322;2022-12-10T01:47:50;97911.16;;;2.45;77.78
21594;BME280;10959;51.328;7.322;2022-12-10T01:50:17;97905.75;;;2.48;77.54
21594;BME280;10959;51.328;7.322;2022-12-10T01:52:43;97907.50;;;2.49;77.82
21594;BME280;10959;51.328;7.322;2022-12-10T01:55:41;97905.31;;;2.34;78.03
21594;BME280;10959;51.328;7.322;2022-12-10T01:58:10;97907.59;;;2.46;77.95
21594;BME280;10959;51.328;7.322;2022-12-10T02:00:54;97911.41;;;2.37;77.55
21594;BME280;10959;51.328;7.322;2022-12-10T02:03:29;97909.41;;;2.44;77.66
21594;BME280;10959;51.328;7.322;2022-12-10T02:06:08;97912.19;;;2.41;77.32
21594;BME280;10959;51.328;7.322;2022-12-10T02:08:44;97911.22;;;2.44;77.33
21594;BME280;10959;51.328;7.322;2022-12-10T02:11:16;97913.19;;;2.37;76.72
21594;BME280;10959;51.328;7.322;2022-12-10T02:13:50;97915.03;;;2.35;76.79
21594;BME280;10959;51.328;7.322;2022-12-10T02:16:28;97916.25;;;2.24;76.46
21594;BME280;10959;51.328;7.322;2022-12-10T02:18:58;97907.22;;;2.30;76.46
21594;BME280;10959;51.328;7.322;2022-12-10T02:21:31;97904.50;;;2.32;76.65
21594;BME280;10959;51.328;7.322;2022-12-10T02:24:01;97899.81;;;2.40;76.89
21594;BME280;10959;51.328;7.322;2022-12-10T02:26:34;97904.19;;;2.41;76.79
21594;BME280;10959;51.328;7.322;2022-12-10T02:29:11;97904.56;;;2.29;76.55
21594;BME280;10959;51.328;7.322;2022-12-10T02:31:41;97909.56;;;2.39;76.19
21594;BME280;10959;51.328;7.322;2022-12-10T02:34:09;97906.81;;;2.42;76.37
21594;BME280;10959;51.328;7.322;2022-12-10T02:36:38;97904.09;;;2.44;76.33
21594;BME280;10959;51.328;7.322;2022-12-10T02:39:10;97899.91;;;2.37;76.36
21594;BME280;10959;51.328;7.322;2022-12-10T02:41:41;97904.41;;;2.35;76.24
21594;BME280;10959;51.328;7.322;2022-12-10T02:44:11;97904.50;;;2.32;76.36
21594;BME280;10959;51.328;7.322;2022-12-10T02:46:41;97900.91;;;2.33;76.47
21594;BME280;10959;51.328;7.322;2022-12-10T02:49:11;97901.09;;;2.27;76.49
21594;BME280;10959;51.328;7.322;2022-12-10T02:51:40;97903.34;;;2.40;77.03
21594;BME280;10959;51.328;7.322;2022-12-10T02:54:39;97895.03;;;2.23;76.68
21594;BME280;10959;51.328;7.322;2022-12-10T02:57:27;97896.91;;;2.19;76.51
21594;BME280;10959;51.328;7.322;2022-12-10T03:00:04;97897.53;;;2.28;76.58
21594;BME280;10959;51.328;7.322;2022-12-10T03:02:37;97906.16;;;2.36;76.70
21594;BME280;10959;51.328;7.322;2022-12-10T03:05:12;97906.72;;;2.17;75.89
21594;BME280;10959;51.328;7.322;2022-12-10T03:07:45;97902.28;;;2.18;76.12
21594;BME280;10959;51.328;7.322;2022-12-10T03:10:22;97915.41;;;2.22;76.27
21594;BME280;10959;51.328;7.322;2022-12-10T03:12:54;97916.78;;;2.36;76.21
21594;BME280;10959;51.328;7.322;2022-12-10T03:15:25;97906.16;;;2.36;76.11
21594;BME280;10959;51.328;7.322;2022-12-10T03:17:53;97913.78;;;2.47;75.99
21594;BME280;10959;51.328;7.322;2022-12-10T03:20:22;97915.47;;;2.49;75.48
21594;BME280;10959;51.328;7.322;2022-12-10T03:22:51;97907.50;;;2.49;75.63
21594;BME280;10959;51.328;7.322;2022-12-10T03:25:22;97912.91;;;2.46;75.88
21594;BME280;10959;51.328;7.322;2022-12-10T03:27:51;97912.72;;;2.52;75.57
21594;BME280;10959;51.328;7.322;2022-12-10T03:30:20;97921.53;;;2.54;75.54
21594;BME280;10959;51.328;7.322;2022-12-10T03:32:49;97917.91;;;2.55;75.68
21594;BME280;10959;51.328;7.322;2022-12-10T03:35:17;97916.22;;;2.54;75.58
21594;BME280;10959;51.328;7.322;2022-12-10T03:37:46;97925.25;;;2.47;75.23
21594;BME280;10959;51.328;7.322;2022-12-10T03:40:14;97921.78;;;2.45;75.22
21594;BME280;10959;51.328;7.322;2022-12-10T03:42:43;97929.97;;;2.39;75.41
21594;BME280;10959;51.328;7.322;2022-12-10T03:45:10;97929.13;;;2.37;74.94
21594;BME280;10959;51.328;7.322;2022-12-10T03:47:36;97930.00;;;2.37;74.88
21594;BME280;10959;51.328;7.322;2022-12-10T03:50:05;97927.66;;;2.27;74.64
21594;BME280;10959;51.328;7.322;2022-12-10T03:52:32;97934.22;;;2.15;74.92
21594;BME280;10959;51.328;7.322;2022-12-10T03:54:59;97929.69;;;2.18;75.27
21594;BME280;10959;51.328;7.322;2022-12-10T03:57:26;97928.47;;;2.29;75.20
21594;BME280;10959;51.328;7.322;2022-12-10T03:59:53;97924.88;;;2.31;75.33
21594;BME280;10959;51.328;7.322;2022-12-10T04:02:19;97927.31;;;2.39;75.36
21594;BME280;10959;51.328;7.322;2022-12-10T04:04:45;97927.44;;;2.34;75.14
21594;BME280;10959;51.328;7.322;2022-12-10T04:07:13;97925.56;;;2.38;74.76
21594;BME280;10959;51.328;7.322;2022-12-10T04:09:40;97923.81;;;2.37;74.81
21594;BME280;10959;51.328;7.322;2022-12-10T04:12:06;97929.13;;;2.37;74.61
21594;BME280;10959;51.328;7.322;2022-12-10T04:14:33;97923.81;;;2.37;74.92
21594;BME280;10959;51.328;7.322;2022-12-10T04:17:17;97927.31;;;2.39;74.92
21594;BME280;10959;51.328;7.322;2022-12-10T04:19:44;97933.47;;;2.39;74.85
21594;BME280;10959;51.328;7.322;2022-12-10T04:22:10;97929.81;;;2.44;74.90
21594;BME280;10959;51.328;7.322;2022-12-10T04:24:55;97928.84;;;2.46;75.01
21594;BME280;10959;51.328;7.322;2022-12-10T04:27:47;97934.16;;;2.46;75.20
21594;BME280;10959;51.328;7.322;2022-12-10T04:30:14;97929.56;;;2.51;75.28
21594;BME280;10959;51.328;7.322;2022-12-10T04:32:41;97937.47;;;2.54;75.38
21594;BME280;10959;51.328;7.322;2022-12-10T04:35:08;97930.19;;;2.59;75.39
21594;BME280;10959;51.328;7.322;2022-12-10T04:37:35;97931.03;;;2.62;75.32
21594;BME280;10959;51.328;7.322;2022-12-10T04:40:04;97930.97;;;2.63;75.09
21594;BME280;10959;51.328;7.322;2022-12-10T04:42:30;97939.00;;;2.62;75.33
21594;BME280;10959;51.328;7.322;2022-12-10T04:44:57;97934.56;;;2.62;75.03
21594;BME280;10959;51.328;7.322;2022-12-10T04:47:23;97931.75;;;2.67;75.31
21594;BME280;10959;51.328;7.322;2022-12-10T04:49:50;97937.06;;;2.67;75.14
21594;BME280;10959;51.328;7.322;2022-12-10T04:52:17;97935.31;;;2.66;75.29
21594;BME280;10959;51.328;7.322;2022-12-10T04:54:44;97936.88;;;2.45;73.61
21594;BME280;10959;51.328;7.322;2022-12-10T04:57:11;97936.09;;;2.41;74.40
21594;BME280;10959;51.328;7.322;2022-12-10T04:59:39;97943.25;;;2.39;74.77
21594;BME280;10959;51.328;7.322;2022-12-10T05:02:05;97932.41;;;2.45;75.13
21594;BME280;10959;51.328;7.322;2022-12-10T05:04:32;97937.53;;;2.51;74.89
21594;BME280;10959;51.328;7.322;2022-12-10T05:06:58;97939.19;;;2.55;75.08
21594;BME280;10959;51.328;7.322;2022-12-10T05:09:25;97940.81;;;2.59;74.88
21594;BME280;10959;51.328;7.322;2022-12-10T05:11:51;97940.72;;;2.63;74.89
21594;BME280;10959;51.328;7.322;2022-12-10T05:14:19;97946.03;;;2.63;74.84
21594;BME280;10959;51.328;7.322;2022-12-10T05:16:49;97939.84;;;2.34;73.50
21594;BME280;10959;51.328;7.322;2022-12-10T05:19:15;97937.84;;;2.42;74.42
21594;BME280;10959;51.328;7.322;2022-12-10T05:21:44;97941.31;;;2.44;74.10
21594;BME280;10959;51.328;7.322;2022-12-10T05:24:28;97941.59;;;2.35;73.88
21594;BME280;10959;51.328;7.322;2022-12-10T05:26:56;97939.91;;;2.32;73.75
21594;BME280;10959;51.328;7.322;2022-12-10T05:29:24;97939.44;;;2.18;73.52
21594;BME280;10959;51.328;7.322;2022-12-10T05:31:51;97942.25;;;2.13;73.86
21594;BME280;10959;51.328;7.322;2022-12-10T05:34:17;97941.25;;;2.17;73.78
21594;BME280;10959;51.328;7.322;2022-12-10T05:36:44;97943.72;;;2.23;74.15
21594;BME280;10959;51.328;7.322;2022-12-10T05:39:11;97939.09;;;2.29;74.35
21594;BME280;10959;51.328;7.322;2022-12-10T05:41:39;97944.41;;;2.29;73.63
21594;BME280;10959;51.328;7.322;2022-12-10T05:44:06;97940.16;;;2.24;73.56
21594;BME280;10959;51.328;7.322;2022-12-10T05:46:35;97941.75;;;2.29;74.04
21594;BME280;10959;51.328;7.322;2022-12-10T05:49:03;97947.72;;;2.37;74.28
21594;BME280;10959;51.328;7.322;2022-12-10T05:51:32;97944.91;;;2.43;74.45
21594;BME280;10959;51.328;7.322;2022-12-10T05:54:00;97950.56;;;2.31;73.67
21594;BME280;10959;51.328;7.322;2022-12-10T05:56:28;97951.47;;;2.30;73.76
21594;BME280;10959;51.328;7.322;2022-12-10T05:58:59;97955.69;;;2.37;73.89
21594;BME280;10959;51.328;7.322;2022-12-10T06:01:28;97956.25;;;2.18;73.38
21594;BME280;10959;51.328;7.322;2022-12-10T06:03:56;97955.72;;;2.05;73.71
21594;BME280;10959;51.328;7.322;2022-12-10T06:06:24;97956.44;;;2.12;73.81
21594;BME280;10959;51.328;7.322;2022-12-10T06:08:51;97965.06;;;2.20;73.81
21594;BME280;10959;51.328;7.322;2022-12-10T06:11:18;97965.66;;;2.29;74.06
21594;BME280;10959;51.328;7.322;2022-12-10T06:13:45;97962.84;;;2.35;74.29
21594;BME280;10959;51.328;7.322;2022-12-10T06:16:13;97959.09;;;2.42;74.13
21594;BME280;10959;51.328;7.322;2022-12-10T06:18:40;97959.84;;;2.46;74.24
21594;BME280;10959;51.328;7.322;2022-12-10T06:21:10;97960.00;;;2.41;73.98
21594;BME280;10959;51.328;7.322;2022-12-10T06:23:38;97959.81;;;2.47;74.23
21594;BME280;10959;51.328;7.322;2022-12-10T06:26:05;97949.47;;;2.38;73.72
21594;BME280;10959;51.328;7.322;2022-12-10T06:28:31;97953.03;;;2.37;73.42
21594;BME280;10959;51.328;7.322;2022-12-10T06:30:58;97948.56;;;2.39;73.88
21594;BME280;10959;51.328;7.322;2022-12-10T06:33:25;97964.50;;;2.39;73.84
21594;BME280;10959;51.328;7.322;2022-12-10T06:35:52;97959.09;;;2.42;74.00
21594;BME280;10959;51.328;7.322;2022-12-10T06:38:20;97955.53;;;2.43;74.22
21594;BME280;10959;51.328;7.322;2022-12-10T06:40:46;97959.09;;;2.42;73.60
21594;BME280;10959;51.328;7.322;2022-12-10T06:43:13;97955.59;;;2.40;73.58
21594;BME280;10959;51.328;7.322;2022-12-10T06:45:40;97956.38;;;2.44;73.75
21594;BME280;10959;51.328;7.322;2022-12-10T06:48:08;97965.16;;;2.46;74.13
21594;BME280;10959;51.328;7.322;2022-12-10T06:50:35;97968.72;;;2.46;73.68
21594;BME280;10959;51.328;7.322;2022-12-10T06:53:01;97969.63;;;2.45;73.73
21594;BME280;10959;51.328;7.322;2022-12-10T06:55:30;97971.38;;;2.46;73.98
21594;BME280;10959;51.328;7.322;2022-12-10T06:57:56;97976.59;;;2.49;73.64
21594;BME280;10959;51.328;7.322;2022-12-10T07:00:23;97969.72;;;2.42;73.54
21594;BME280;10959;51.328;7.322;2022-12-10T07:02:49;97974.16;;;2.41;73.49
21594;BME280;10959;51.328;7.322;2022-12-10T07:05:16;97980.34;;;2.42;74.05
21594;BME280;10959;51.328;7.322;2022-12-10T07:07:42;97980.25;;;2.45;74.01
21594;BME280;10959;51.328;7.322;2022-12-10T07:10:09;97976.59;;;2.49;74.13
21594;BME280;10959;51.328;7.322;2022-12-10T07:12:37;97976.69;;;2.46;74.17
21594;BME280;10959;51.328;7.322;2022-12-10T07:15:04;97985.47;;;2.48;74.37
21594;BME280;10959;51.328;7.322;2022-12-10T07:17:31;97981.91;;;2.49;74.17
21594;BME280;10959;51.328;7.322;2022-12-10T07:19:58;97993.59;;;2.44;73.93
21594;BME280;10959;51.328;7.322;2022-12-10T07:22:24;97990.22;;;2.37;73.72
21594;BME280;10959;51.328;7.322;2022-12-10T07:24:50;97997.34;;;2.36;73.28
21594;BME280;10959;51.328;7.322;2022-12-10T07:27:17;98001.84;;;2.33;73.70
21594;BME280;10959;51.328;7.322;2022-12-10T07:29:45;97996.53;;;2.33;73.81
21594;BME280;10959;51.328;7.322;2022-12-10T07:32:11;98007.09;;;2.36;73.74
21594;BME280;10959;51.328;7.322;2022-12-10T07:34:39;98009.78;;;2.34;73.40
21594;BME280;10959;51.328;7.322;2022-12-10T07:37:06;98000.03;;;2.35;73.60
21594;BME280;10959;51.328;7.322;2022-12-10T07:39:33;98010.75;;;2.32;73.30
21594;BME280;10959;51.328;7.322;2022-12-10T07:41:59;98009.00;;;2.31;73.37
21594;BME280;10959;51.328;7.322;2022-12-10T07:44:25;98009.34;;;2.18;72.79
21594;BME280;10959;51.328;7.322;2022-12-10T07:46:54;98009.44;;;2.15;73.02
21594;BME280;10959;51.328;7.322;2022-12-10T07:49:20;98011.38;;;2.10;73.41
21594;BME280;10959;51.328;7.322;2022-12-10T07:51:48;98011.38;;;2.10;73.31
21594;BME280;10959;51.328;7.322;2022-12-10T07:54:15;98017.78;;;2.01;72.90
21594;BME280;10959;51.328;7.322;2022-12-10T07:56:42;98018.69;;;2.02;73.52
21594;BME280;10959;51.328;7.322;2022-12-10T07:59:09;98013.19;;;2.08;74.04
21594;BME280;10959;51.328;7.322;2022-12-10T08:01:35;98020.97;;;2.14;73.49
21594;BME280;10959;51.328;7.322;2022-12-10T08:04:03;98018.31;;;2.14;73.48
21594;BME280;10959;51.328;7.322;2022-12-10T08:06:30;98013.91;;;2.15;73.94
21594;BME280;10959;51.328;7.322;2022-12-10T08:08:58;98025.28;;;2.18;73.90
21594;BME280;10959;51.328;7.322;2022-12-10T08:11:25;98026.94;;;2.22;74.41
21594;BME280;10959;51.328;7.322;2022-12-10T08:13:52;98022.47;;;2.24;74.34
21594;BME280;10959;51.328;7.322;2022-12-10T08:16:20;98026.75;;;2.29;74.36
21594;BME280;10959;51.328;7.322;2022-12-10T08:18:48;98035.56;;;2.31;74.19
21594;BME280;10959;51.328;7.322;2022-12-10T08:21:17;98037.44;;;2.27;74.52
21594;BME280;10959;51.328;7.322;2022-12-10T08:23:45;98041.75;;;2.31;74.24
21594;BME280;10959;51.328;7.322;2022-12-10T08:26:14;98044.44;;;2.30;73.94
21594;BME280;10959;51.328;7.322;2022-12-10T08:28:41;98049.84;;;2.27;74.36
21594;BME280;10959;51.328;7.322;2022-12-10T08:31:09;98053.31;;;2.29;74.39
21594;BME280;10959;51.328;7.322;2022-12-10T08:33:37;98052.31;;;2.33;74.57
21594;BME280;10959;51.328;7.322;2022-12-10T08:36:05;98054.06;;;2.34;74.26
21594;BME280;10959;51.328;7.322;2022-12-10T08:38:34;98053.19;;;2.35;74.24
21594;BME280;10959;51.328;7.322;2022-12-10T08:41:05;98053.31;;;2.29;74.37
21594;BME280;10959;51.328;7.322;2022-12-10T08:43:32;98056.56;;;2.40;74.52
21594;BME280;10959;51.328;7.322;2022-12-10T08:45:58;98056.50;;;2.43;74.62
21594;BME280;10959;51.328;7.322;2022-12-10T08:48:25;98056.50;;;2.43;74.42
21594;BME280;10959;51.328;7.322;2022-12-10T08:50:51;98063.53;;;2.44;74.71
21594;BME280;10959;51.328;7.322;2022-12-10T08:53:18;98068.75;;;2.47;74.54
21594;BME280;10959;51.328;7.322;2022-12-10T08:55:49;98074.16;;;2.44;74.61
21594;BME280;10959;51.328;7.322;2022-12-10T08:58:15;98074.84;;;2.51;74.84
21594;BME280;10959;51.328;7.322;2022-12-10T09:00:42;98071.16;;;2.56;74.50
21594;BME280;10959;51.328;7.322;2022-12-10T09:03:09;98076.38;;;2.59;74.34
21594;BME280;10959;51.328;7.322;2022-12-10T09:05:36;98070.16;;;2.61;74.37
21594;BME280;10959;51.328;7.322;2022-12-10T09:08:02;98079.78;;;2.65;74.49
21594;BME280;10959;51.328;7.322;2022-12-10T09:10:29;98081.44;;;2.69;74.23
21594;BME280;10959;51.328;7.322;2022-12-10T09:12:57;98085.81;;;2.70;73.90
21594;BME280;10959;51.328;7.322;2022-12-10T09:15:24;98084.00;;;2.72;74.15
21594;BME280;10959;51.328;7.322;2022-12-10T09:17:50;98087.38;;;2.77;74.22
21594;BME280;10959;51.328;7.322;2022-12-10T09:20:17;98081.97;;;2.80;74.02
21594;BME280;10959;51.328;7.322;2022-12-10T09:22:43;98083.56;;;2.86;74.21
21594;BME280;10959;51.328;7.322;2022-12-10T09:25:09;98087.09;;;2.86;73.99
21594;BME280;10959;51.328;7.322;2022-12-10T09:27:36;98087.91;;;2.88;73.96
21594;BME280;10959;51.328;7.322;2022-12-10T09:30:05;98087.19;;;2.83;73.85
21594;BME280;10959;51.328;7.322;2022-12-10T09:32:32;98088.75;;;2.90;73.91
21594;BME280;10959;51.328;7.322;2022-12-10T09:34:59;98094.06;;;2.90;74.00
21594;BME280;10959;51.328;7.322;2022-12-10T09:37:26;98093.97;;;2.93;73.74
21594;BME280;10959;51.328;7.322;2022-12-10T09:39:53;98090.47;;;2.91;73.54
21594;BME280;10959;51.328;7.322;2022-12-10T09:42:30;98090.66;;;2.85;73.40
21594;BME280;10959;51.328;7.322;2022-12-10T09:45:09;98083.50;;;2.89;73.83
21594;BME280;10959;51.328;7.322;2022-12-10T09:47:40;98086.81;;;2.96;73.67
21594;BME280;10959;51.328;7.322;2022-12-10T09:50:16;98090.88;;;2.79;72.90
21594;BME280;10959;51.328;7.322;2022-12-10T09:52:45;98095.78;;;2.91;73.11
21594;BME280;10959;51.328;7.322;2022-12-10T09:55:16;98104.63;;;2.93;72.95
21594;BME280;10959;51.328;7.322;2022-12-10T09:57:45;98101.94;;;2.93;73.09
21594;BME280;10959;51.328;7.322;2022-12-10T10:00:22;98101.31;;;2.85;73.68
21594;BME280;10959;51.328;7.322;2022-12-10T10:02:49;98098.28;;;2.98;73.52
21594;BME280;10959;51.328;7.322;2022-12-10T10:05:20;98102.75;;;2.96;73.94
21594;BME280;10959;51.328;7.322;2022-12-10T10:07:51;98100.94;;;2.98;73.92
21594;BME280;10959;51.328;7.322;2022-12-10T10:10:22;98107.22;;;2.95;73.60
21594;BME280;10959;51.328;7.322;2022-12-10T10:12:52;98102.69;;;2.99;73.65
21594;BME280;10959;51.328;7.322;2022-12-10T10:15:25;98104.72;;;2.90;73.71
21594;BME280;10959;51.328;7.322;2022-12-10T10:17:53;98106.16;;;3.01;73.85
21594;BME280;10959;51.328;7.322;2022-12-10T10:20:22;98108.03;;;2.99;74.05
21594;BME280;10959;51.328;7.322;2022-12-10T10:22:48;98099.28;;;2.93;73.82
21594;BME280;10959;51.328;7.322;2022-12-10T10:25:17;98102.88;;;2.92;73.73
21594;BME280;10959;51.328;7.322;2022-12-10T10:27:44;98097.63;;;2.89;73.73
21594;BME280;10959;51.328;7.322;2022-12-10T10:30:15;98093.28;;;2.87;73.83
21594;BME280;10959;51.328;7.322;2022-12-10T10:33:09;98093.88;;;2.67;74.01
21594;BME280;10959;51.328;7.322;2022-12-10T10:35:43;98104.16;;;2.79;73.72
21594;BME280;10959;51.328;7.322;2022-12-10T10:38:16;98102.41;;;2.78;73.85
21594;BME280;10959;51.328;7.322;2022-12-10T10:40:45;98100.50;;;2.83;73.57
21594;BME280;10959;51.328;7.322;2022-12-10T10:43:14;98106.81;;;2.79;73.71
21594;BME280;10959;51.328;7.322;2022-12-10T10:45:43;98104.88;;;2.84;73.75
21594;BME280;10959;51.328;7.322;2022-12-10T10:48:17;98110.47;;;2.75;73.37
21594;BME280;10959;51.328;7.322;2022-12-10T10:50:47;98111.38;;;2.74;73.39
21594;BME280;10959;51.328;7.322;2022-12-10T10:53:21;98107.25;;;2.64;73.56
21594;BME280;10959;51.328;7.322;2022-12-10T10:55:48;98117.44;;;2.79;73.76
21594;BME280;10959;51.328;7.322;2022-12-10T10:58:17;98117.53;;;2.76;73.85
21594;BME280;10959;51.328;7.322;2022-12-10T11:00:54;98114.22;;;2.68;73.59
21594;BME280;10959;51.328;7.322;2022-12-10T11:03:22;98113.88;;;2.80;73.92
21594;BME280;10959;51.328;7.322;2022-12-10T11:05:49;98115.69;;;2.78;73.78
21594;BME280;10959;51.328;7.322;2022-12-10T11:08:17;98113.94;;;2.77;73.67
21594;BME280;10959;51.328;7.322;2022-12-10T11:10:48;98117.53;;;2.76;73.72
21594;BME280;10959;51.328;7.322;2022-12-10T11:13:19;98114.03;;;2.74;73.50
21594;BME280;10959;51.328;7.322;2022-12-10T11:15:56;98117.69;;;2.70;73.65
21594;BME280;10959;51.328;7.322;2022-12-10T11:18:29;98112.38;;;2.70;74.04
21594;BME280;10959;51.328;7.322;2022-12-10T11:20:58;98117.44;;;2.79;74.01
21594;BME280;10959;51.328;7.322;2022-12-10T11:23:27;98110.28;;;2.81;73.97
21594;BME280;10959;51.328;7.322;2022-12-10T11:25:59;98113.03;;;2.78;73.37
21594;BME280;10959;51.328;7.322;2022-12-10T11:28:37;98108.72;;;2.74;73.74
21594;BME280;10959;51.328;7.322;2022-12-10T11:31:18;98110.56;;;2.72;73.78
21594;BME280;10959;51.328;7.322;2022-12-10T11:33:56;98110.56;;;2.72;73.94
21594;BME280;10959;51.328;7.322;2022-12-10T11:36:33;98113.19;;;2.73;73.93
21594;BME280;10959;51.328;7.322;2022-12-10T11:39:13;98105.16;;;2.75;73.85
21594;BME280;10959;51.328;7.322;2022-12-10T11:41:49;98106.81;;;2.79;73.81
21594;BME280;10959;51.328;7.322;2022-12-10T11:44:25;98109.34;;;2.84;73.97
21594;BME280;10959;51.328;7.322;2022-12-10T11:47:14;98113.09;;;2.76;74.05
21594;BME280;10959;51.328;7.322;2022-12-10T11:49:48;98110.94;;;2.89;73.95
21594;BME280;10959;51.328;7.322;2022-12-10T11:52:30;98117.16;;;2.88;73.69
21594;BME280;10959;51.328;7.322;2022-12-10T11:55:22;98120.66;;;2.90;73.85
21594;BME280;10959;51.328;7.322;2022-12-10T11:58:03;98122.72;;;2.81;73.42
21594;BME280;10959;51.328;7.322;2022-12-10T12:00:40;98126.16;;;2.84;73.53
21594;BME280;10959;51.328;7.322;2022-12-10T12:03:24;98124.53;;;2.80;73.75
21594;BME280;10959;51.328;7.322;2022-12-10T12:06:10;98121.97;;;2.75;73.61
21594;BME280;10959;51.328;7.322;2022-12-10T12:08:49;98111.94;;;2.85;73.36
21594;BME280;10959;51.328;7.322;2022-12-10T12:11:32;98117.44;;;2.79;73.89
21594;BME280;10959;51.328;7.322;2022-12-10T12:14:07;98118.16;;;2.84;73.75
21594;BME280;10959;51.328;7.322;2022-12-10T12:16:42;98119.72;;;2.91;73.60
21594;BME280;10959;51.328;7.322;2022-12-10T12:19:13;98120.66;;;2.90;73.72
21594;BME280;10959;51.328;7.322;2022-12-10T12:21:43;98119.56;;;2.98;73.90
21594;BME280;10959;51.328;7.322;2022-12-10T12:24:16;98113.34;;;2.99;73.56
21594;BME280;10959;51.328;7.322;2022-12-10T12:26:50;98109.63;;;3.03;73.74
21594;BME280;10959;51.328;7.322;2022-12-10T12:29:22;98114.00;;;3.05;73.28
21594;BME280;10959;51.328;7.322;2022-12-10T12:31:57;98109.72;;;3.00;73.58
21594;BME280;10959;51.328;7.322;2022-12-10T12:34:27;98114.78;;;3.09;73.55
21594;BME280;10959;51.328;7.322;2022-12-10T12:36:56;98112.75;;;3.17;73.57
21594;BME280;10959;51.328;7.322;2022-12-10T12:39:29;98112.94;;;3.11;73.03
21594;BME280;10959;51.328;7.322;2022-12-10T12:42:03;98109.38;;;3.12;73.13
21594;BME280;10959;51.328;7.322;2022-12-10T12:44:38;98121.84;;;3.10;73.28
21594;BME280;10959;51.328;7.322;2022-12-10T12:47:16;98116.50;;;3.10;73.53
21594;BME280;10959;51.328;7.322;2022-12-10T12:49:47;98117.16;;;3.18;73.72
21594;BME280;10959;51.328;7.322;2022-12-10T12:52:25;98115.50;;;3.14;73.71
21594;BME280;10959;51.328;7.322;2022-12-10T12:54:56;98120.44;;;3.26;74.01
21594;BME280;10959;51.328;7.322;2022-12-10T12:57:30;98121.47;;;3.22;73.67
21594;BME280;10959;51.328;7.322;2022-12-10T13:00:03;98116.84;;;3.29;73.58
21594;BME280;10959;51.328;7.322;2022-12-10T13:02:45;98116.34;;;3.16;73.51
21594;BME280;10959;51.328;7.322;2022-12-10T13:05:14;98111.34;;;3.34;73.76
21594;BME280;10959;51.328;7.322;2022-12-10T13:07:44;98114.00;;;3.34;73.63
21594;BME280;10959;51.328;7.322;2022-12-10T13:10:23;98112.56;;;3.23;73.62
21594;BME280;10959;51.328;7.322;2022-12-10T13:12:52;98112.94;;;3.39;73.73
21594;BME280;10959;51.328;7.322;2022-12-10T13:15:34;98110.34;;;3.38;73.62
21594;BME280;10959;51.328;7.322;2022-12-10T13:18:06;98112.16;;;3.36;73.46
21594;BME280;10959;51.328;7.322;2022-12-10T13:20:47;98110.44;;;3.35;73.33
21594;BME280;10959;51.328;7.322;2022-12-10T13:23:31;98109.16;;;3.18;73.83
21594;BME280;10959;51.328;7.322;2022-12-10T13:25:59;98124.56;;;3.37;73.78